NSZ40ET EKYT-EKCH
Flight info
| Callsign | NSZ40ET |
|---|---|
| Flight time | 0h 28m |
| Altitude | 13000 |
| Route | AAL M725 ADSEN DCT TNO |
| Aircraft | B38M/M-SDE1FGHILORVWXY/HB1 |
Departure
| Time | 2026-04-22 20:14 |
|---|---|
| Airport | Aalborg Airport (EKYT) |
Arrival
| Time | 2026-04-22 20:42 |
|---|---|
| Airport | Copenhagen Kastrup Airport (EKCH) |
| Time | Latitude | Longitude | Altitude | Speed | Heading |
|---|---|---|---|---|---|
| 2026-04-22 19:29 | 57.08706 | 9.86971 | 21 ft | 0 kts | 55° |
| 2026-04-22 20:00 | 57.08689 | 9.86928 | 21 ft | 3 kts | 55° |
| 2026-04-22 20:00 | 57.08679 | 9.86903 | 21 ft | 3 kts | 44° |
| 2026-04-22 20:01 | 57.08665 | 9.86888 | 23 ft | 3 kts | 0° |
| 2026-04-22 20:01 | 57.08648 | 9.86897 | 21 ft | 3 kts | 323° |
| 2026-04-22 20:01 | 57.08633 | 9.86922 | 21 ft | 3 kts | 314° |
| 2026-04-22 20:01 | 57.08623 | 9.86940 | 21 ft | 1 kts | 315° |
| 2026-04-22 20:02 | 57.08612 | 9.86961 | 21 ft | 3 kts | 314° |
| 2026-04-22 20:02 | 57.08598 | 9.86988 | 21 ft | 3 kts | 313° |
| 2026-04-22 20:02 | 57.08584 | 9.87016 | 21 ft | 3 kts | 311° |
| 2026-04-22 20:02 | 57.08577 | 9.87031 | 21 ft | 0 kts | 311° |
| 2026-04-22 20:06 | 57.08583 | 9.87017 | 22 ft | 2 kts | 312° |
| 2026-04-22 20:07 | 57.08600 | 9.86985 | 23 ft | 4 kts | 314° |
| 2026-04-22 20:07 | 57.08627 | 9.86937 | 23 ft | 6 kts | 317° |
| 2026-04-22 20:07 | 57.08663 | 9.86872 | 25 ft | 8 kts | 314° |
| 2026-04-22 20:07 | 57.08708 | 9.86791 | 21 ft | 10 kts | 318° |
| 2026-04-22 20:08 | 57.08757 | 9.86720 | 21 ft | 10 kts | 322° |
| 2026-04-22 20:08 | 57.08816 | 9.86636 | 21 ft | 12 kts | 322° |
| 2026-04-22 20:08 | 57.08885 | 9.86538 | 21 ft | 13 kts | 322° |
| 2026-04-22 20:08 | 57.08961 | 9.86424 | 21 ft | 12 kts | 320° |
| 2026-04-22 20:09 | 57.09026 | 9.86332 | 21 ft | 12 kts | 322° |
| 2026-04-22 20:09 | 57.09098 | 9.86229 | 21 ft | 14 kts | 322° |
| 2026-04-22 20:09 | 57.09178 | 9.86116 | 23 ft | 15 kts | 322° |
| 2026-04-22 20:09 | 57.09251 | 9.86014 | 21 ft | 11 kts | 322° |
| 2026-04-22 20:10 | 57.09304 | 9.85940 | 22 ft | 8 kts | 325° |
| 2026-04-22 20:10 | 57.09347 | 9.85971 | 21 ft | 8 kts | 71° |
| 2026-04-22 20:10 | 57.09356 | 9.86083 | 24 ft | 10 kts | 83° |
| 2026-04-22 20:10 | 57.09366 | 9.86221 | 23 ft | 13 kts | 83° |
| 2026-04-22 20:11 | 57.09381 | 9.86444 | 21 ft | 23 kts | 83° |
| 2026-04-22 20:11 | 57.09401 | 9.86761 | 23 ft | 26 kts | 82° |
| 2026-04-22 20:11 | 57.09423 | 9.87098 | 21 ft | 27 kts | 84° |
| 2026-04-22 20:11 | 57.09438 | 9.87346 | 23 ft | 16 kts | 84° |
| 2026-04-22 20:12 | 57.09449 | 9.87538 | 21 ft | 15 kts | 83° |
| 2026-04-22 20:12 | 57.09461 | 9.87666 | 22 ft | 9 kts | 67° |
| 2026-04-22 20:12 | 57.09481 | 9.87710 | 22 ft | 7 kts | 45° |
| 2026-04-22 20:12 | 57.09543 | 9.87742 | 24 ft | 8 kts | 358° |
| 2026-04-22 20:13 | 57.09603 | 9.87710 | 21 ft | 10 kts | 326° |
| 2026-04-22 20:13 | 57.09648 | 9.87609 | 21 ft | 11 kts | 281° |
| 2026-04-22 20:13 | 57.09639 | 9.87459 | 21 ft | 14 kts | 263° |
| 2026-04-22 20:13 | 57.09594 | 9.86783 | 21 ft | 96 kts | 263° |
| 2026-04-22 20:14 | 57.09477 | 9.85096 | 44 ft | 164 kts | 262° |
| 2026-04-22 20:14 | 57.09290 | 9.82952 | 756 ft | 179 kts | 250° |
| 2026-04-22 20:14 | 57.08553 | 9.81022 | 1432 ft | 194 kts | 214° |
| 2026-04-22 20:14 | 57.07258 | 9.80393 | 2170 ft | 202 kts | 170° |
| 2026-04-22 20:15 | 57.05978 | 9.81627 | 2898 ft | 225 kts | 137° |
| 2026-04-22 20:15 | 57.04784 | 9.83502 | 4075 ft | 227 kts | 144° |
| 2026-04-22 20:15 | 57.03443 | 9.85270 | 4999 ft | 246 kts | 146° |
| 2026-04-22 20:15 | 57.02005 | 9.87129 | 6022 ft | 255 kts | 146° |
| 2026-04-22 20:16 | 57.00530 | 9.89044 | 7131 ft | 263 kts | 146° |
| 2026-04-22 20:16 | 56.99025 | 9.91011 | 8256 ft | 268 kts | 146° |
| 2026-04-22 20:16 | 56.97491 | 9.93012 | 9248 ft | 274 kts | 146° |
| 2026-04-22 20:16 | 56.95920 | 9.95054 | 10244 ft | 278 kts | 146° |
| 2026-04-22 20:17 | 56.94300 | 9.97150 | 10978 ft | 293 kts | 147° |
| 2026-04-22 20:17 | 56.92563 | 9.99366 | 11520 ft | 314 kts | 147° |
| 2026-04-22 20:17 | 56.90773 | 10.01879 | 12035 ft | 335 kts | 139° |
| 2026-04-22 20:17 | 56.89043 | 10.04877 | 12658 ft | 350 kts | 140° |
| 2026-04-22 20:18 | 56.87199 | 10.07995 | 12928 ft | 376 kts | 140° |
| 2026-04-22 20:18 | 56.85229 | 10.11284 | 13200 ft | 395 kts | 140° |
| 2026-04-22 20:18 | 56.83268 | 10.14537 | 14400 ft | 371 kts | 141° |
| 2026-04-22 20:18 | 56.81325 | 10.17730 | 14540 ft | 385 kts | 141° |
| 2026-04-22 20:19 | 56.79315 | 10.21031 | 14217 ft | 390 kts | 141° |
| 2026-04-22 20:19 | 56.77281 | 10.24364 | 13974 ft | 394 kts | 141° |
| 2026-04-22 20:19 | 56.75215 | 10.27745 | 13719 ft | 394 kts | 141° |
| 2026-04-22 20:19 | 56.73864 | 10.29954 | 13558 ft | 393 kts | 141° |
| 2026-04-22 20:20 | 56.71167 | 10.34353 | 13239 ft | 391 kts | 141° |
| 2026-04-22 20:20 | 56.69798 | 10.36582 | 13146 ft | 390 kts | 141° |
| 2026-04-22 20:20 | 56.67120 | 10.40937 | 13125 ft | 391 kts | 141° |
| 2026-04-22 20:20 | 56.65088 | 10.44235 | 13130 ft | 391 kts | 141° |
| 2026-04-22 20:21 | 56.63055 | 10.47531 | 13130 ft | 392 kts | 141° |
| 2026-04-22 20:21 | 56.61680 | 10.49757 | 13125 ft | 392 kts | 141° |
| 2026-04-22 20:21 | 56.59644 | 10.53051 | 13128 ft | 392 kts | 141° |
| 2026-04-22 20:21 | 56.57610 | 10.56332 | 13123 ft | 392 kts | 141° |
| 2026-04-22 20:22 | 56.55570 | 10.59621 | 13147 ft | 394 kts | 141° |
| 2026-04-22 20:22 | 56.53532 | 10.62901 | 13134 ft | 392 kts | 141° |
| 2026-04-22 20:22 | 56.51489 | 10.66187 | 13123 ft | 391 kts | 141° |
| 2026-04-22 20:22 | 56.49454 | 10.69452 | 13131 ft | 391 kts | 141° |
| 2026-04-22 20:23 | 56.47441 | 10.72679 | 13128 ft | 391 kts | 141° |
| 2026-04-22 20:23 | 56.45366 | 10.75997 | 13130 ft | 392 kts | 141° |
| 2026-04-22 20:23 | 56.43328 | 10.79253 | 13129 ft | 392 kts | 141° |
| 2026-04-22 20:23 | 56.41305 | 10.82478 | 13131 ft | 392 kts | 141° |
| 2026-04-22 20:24 | 56.39262 | 10.85736 | 13123 ft | 392 kts | 141° |
| 2026-04-22 20:24 | 56.37190 | 10.89031 | 13123 ft | 391 kts | 141° |
| 2026-04-22 20:24 | 56.35151 | 10.92253 | 13071 ft | 386 kts | 142° |
| 2026-04-22 20:24 | 56.33152 | 10.95432 | 13104 ft | 390 kts | 141° |
| 2026-04-22 20:25 | 56.31111 | 10.98669 | 13123 ft | 392 kts | 141° |
| 2026-04-22 20:25 | 56.29064 | 11.01909 | 13123 ft | 392 kts | 141° |
| 2026-04-22 20:25 | 56.27017 | 11.05142 | 13131 ft | 391 kts | 141° |
| 2026-04-22 20:25 | 56.24976 | 11.08357 | 13133 ft | 390 kts | 141° |
| 2026-04-22 20:26 | 56.22933 | 11.11574 | 13132 ft | 391 kts | 141° |
| 2026-04-22 20:26 | 56.20884 | 11.14795 | 13133 ft | 390 kts | 141° |
| 2026-04-22 20:26 | 56.18831 | 11.18018 | 13136 ft | 391 kts | 141° |
| 2026-04-22 20:26 | 56.16786 | 11.21222 | 13125 ft | 389 kts | 142° |
| 2026-04-22 20:27 | 56.14764 | 11.24385 | 13138 ft | 386 kts | 141° |
| 2026-04-22 20:27 | 56.12727 | 11.27568 | 13138 ft | 390 kts | 141° |
| 2026-04-22 20:27 | 56.10680 | 11.30765 | 13143 ft | 392 kts | 141° |
| 2026-04-22 20:27 | 56.08620 | 11.33977 | 13129 ft | 392 kts | 141° |
| 2026-04-22 20:28 | 56.06566 | 11.37171 | 13135 ft | 390 kts | 141° |
| 2026-04-22 20:28 | 56.04558 | 11.40291 | 13102 ft | 373 kts | 142° |
| 2026-04-22 20:28 | 56.02630 | 11.43285 | 12928 ft | 361 kts | 142° |
| 2026-04-22 20:28 | 56.00746 | 11.46208 | 12525 ft | 356 kts | 141° |
| 2026-04-22 20:29 | 55.98884 | 11.49082 | 12074 ft | 353 kts | 141° |
| 2026-04-22 20:29 | 55.97041 | 11.51930 | 11683 ft | 348 kts | 141° |
| 2026-04-22 20:29 | 55.95227 | 11.54729 | 11513 ft | 339 kts | 141° |
| 2026-04-22 20:29 | 55.93462 | 11.57449 | 11355 ft | 330 kts | 141° |
| 2026-04-22 20:30 | 55.91756 | 11.60075 | 11181 ft | 314 kts | 141° |
| 2026-04-22 20:30 | 55.90143 | 11.62556 | 11032 ft | 295 kts | 141° |
| 2026-04-22 20:30 | 55.88638 | 11.64868 | 10890 ft | 277 kts | 141° |
| 2026-04-22 20:30 | 55.87232 | 11.67026 | 10750 ft | 258 kts | 142° |
| 2026-04-22 20:31 | 55.85909 | 11.69051 | 10614 ft | 243 kts | 142° |
| 2026-04-22 20:31 | 55.84629 | 11.71010 | 10528 ft | 247 kts | 142° |
| 2026-04-22 20:31 | 55.83293 | 11.73055 | 10432 ft | 257 kts | 141° |
| 2026-04-22 20:31 | 55.81922 | 11.75149 | 10304 ft | 262 kts | 141° |
| 2026-04-22 20:32 | 55.80545 | 11.77249 | 10138 ft | 260 kts | 142° |
| 2026-04-22 20:32 | 55.79155 | 11.79366 | 9808 ft | 264 kts | 141° |
| 2026-04-22 20:32 | 55.77786 | 11.81455 | 9559 ft | 260 kts | 141° |
| 2026-04-22 20:32 | 55.76418 | 11.83538 | 9278 ft | 255 kts | 141° |
| 2026-04-22 20:33 | 55.75078 | 11.85579 | 9021 ft | 253 kts | 142° |
| 2026-04-22 20:33 | 55.73744 | 11.87606 | 8805 ft | 252 kts | 141° |
| 2026-04-22 20:33 | 55.72292 | 11.89214 | 8517 ft | 243 kts | 156° |
| 2026-04-22 20:33 | 55.70840 | 11.90712 | 8220 ft | 240 kts | 141° |
| 2026-04-22 20:34 | 55.69645 | 11.92751 | 8118 ft | 241 kts | 136° |
| 2026-04-22 20:34 | 55.68462 | 11.94960 | 7743 ft | 248 kts | 135° |
| 2026-04-22 20:34 | 55.67298 | 11.97185 | 7549 ft | 247 kts | 135° |
| 2026-04-22 20:34 | 55.66114 | 11.99428 | 7299 ft | 247 kts | 135° |
| 2026-04-22 20:35 | 55.64945 | 12.01632 | 7031 ft | 243 kts | 135° |
| 2026-04-22 20:35 | 55.63799 | 12.03809 | 6835 ft | 241 kts | 135° |
| 2026-04-22 20:35 | 55.62646 | 12.05987 | 6614 ft | 243 kts | 135° |
| 2026-04-22 20:35 | 55.61487 | 12.08167 | 6394 ft | 242 kts | 134° |
| 2026-04-22 20:36 | 55.60327 | 12.10340 | 6162 ft | 243 kts | 135° |
| 2026-04-22 20:36 | 55.59177 | 12.12491 | 5930 ft | 238 kts | 135° |
| 2026-04-22 20:36 | 55.58035 | 12.14617 | 5643 ft | 238 kts | 135° |
| 2026-04-22 20:36 | 55.56902 | 12.16731 | 5369 ft | 236 kts | 135° |
| 2026-04-22 20:37 | 55.55770 | 12.18836 | 5099 ft | 237 kts | 135° |
| 2026-04-22 20:37 | 55.54649 | 12.20922 | 4826 ft | 234 kts | 135° |
| 2026-04-22 20:37 | 55.53517 | 12.23009 | 4556 ft | 236 kts | 135° |
| 2026-04-22 20:37 | 55.52400 | 12.25062 | 4251 ft | 234 kts | 135° |
| 2026-04-22 20:38 | 55.51274 | 12.27134 | 3969 ft | 232 kts | 135° |
| 2026-04-22 20:38 | 55.50152 | 12.29190 | 3696 ft | 234 kts | 135° |
| 2026-04-22 20:38 | 55.49030 | 12.31233 | 3455 ft | 232 kts | 135° |
| 2026-04-22 20:38 | 55.47884 | 12.33331 | 3186 ft | 234 kts | 135° |
| 2026-04-22 20:39 | 55.46754 | 12.35383 | 2939 ft | 232 kts | 135° |
| 2026-04-22 20:39 | 55.45749 | 12.37531 | 2958 ft | 230 kts | 118° |
| 2026-04-22 20:39 | 55.45396 | 12.40244 | 2928 ft | 236 kts | 90° |
| 2026-04-22 20:39 | 55.45858 | 12.43089 | 2921 ft | 244 kts | 63° |
| 2026-04-22 20:40 | 55.47041 | 12.45271 | 2889 ft | 252 kts | 36° |
| 2026-04-22 20:40 | 55.48671 | 12.46565 | 2579 ft | 261 kts | 22° |
| 2026-04-22 20:40 | 55.50374 | 12.47750 | 2216 ft | 262 kts | 28° |
| 2026-04-22 20:40 | 55.51965 | 12.49303 | 1882 ft | 261 kts | 36° |
| 2026-04-22 20:41 | 55.53393 | 12.51286 | 1532 ft | 261 kts | 45° |
| 2026-04-22 20:41 | 55.54720 | 12.53431 | 1197 ft | 263 kts | 43° |
| 2026-04-22 20:41 | 55.56072 | 12.55488 | 869 ft | 245 kts | 43° |
| 2026-04-22 20:41 | 55.57281 | 12.57359 | 602 ft | 221 kts | 43° |
| 2026-04-22 20:42 | 55.58399 | 12.59083 | 293 ft | 206 kts | 42° |
| 2026-04-22 20:42 | 55.59438 | 12.60704 | 22 ft | 184 kts | 42° |
| 2026-04-22 20:42 | 55.60004 | 12.61570 | 23 ft | 65 kts | 40° |
| 2026-04-22 20:42 | 55.60324 | 12.62056 | 19 ft | 49 kts | 41° |
| 2026-04-22 20:43 | 55.60485 | 12.62259 | 21 ft | 20 kts | 27° |
| 2026-04-22 20:43 | 55.60588 | 12.62324 | 22 ft | 15 kts | 13° |
| 2026-04-22 20:43 | 55.60669 | 12.62353 | 20 ft | 12 kts | 11° |
| 2026-04-22 20:43 | 55.60752 | 12.62386 | 20 ft | 13 kts | 18° |
| 2026-04-22 20:44 | 55.60833 | 12.62470 | 22 ft | 14 kts | 41° |
| 2026-04-22 20:44 | 55.60909 | 12.62586 | 20 ft | 15 kts | 41° |
| 2026-04-22 20:44 | 55.60995 | 12.62717 | 22 ft | 17 kts | 41° |
| 2026-04-22 20:44 | 55.61088 | 12.62860 | 20 ft | 19 kts | 41° |
| 2026-04-22 20:45 | 55.61189 | 12.63019 | 19 ft | 20 kts | 43° |
| 2026-04-22 20:45 | 55.61295 | 12.63184 | 20 ft | 21 kts | 42° |
| 2026-04-22 20:45 | 55.61410 | 12.63361 | 19 ft | 23 kts | 41° |
| 2026-04-22 20:45 | 55.61533 | 12.63549 | 19 ft | 24 kts | 41° |
| 2026-04-22 20:46 | 55.61778 | 12.63931 | 20 ft | 22 kts | 41° |
| 2026-04-22 20:46 | 55.61902 | 12.64094 | 21 ft | 23 kts | 27° |
| 2026-04-22 20:46 | 55.62026 | 12.64201 | 19 ft | 20 kts | 25° |
| 2026-04-22 20:47 | 55.62150 | 12.64303 | 20 ft | 14 kts | 25° |
| 2026-04-22 20:47 | 55.62242 | 12.64399 | 18 ft | 16 kts | 50° |
| 2026-04-22 20:47 | 55.62288 | 12.64569 | 19 ft | 12 kts | 66° |
| 2026-04-22 20:47 | 55.62324 | 12.64711 | 19 ft | 12 kts | 66° |
| 2026-04-22 20:48 | 55.62349 | 12.64815 | 21 ft | 6 kts | 72° |
| 2026-04-22 20:48 | 55.62343 | 12.64889 | 19 ft | 7 kts | 117° |
| 2026-04-22 20:48 | 55.62314 | 12.64972 | 20 ft | 9 kts | 123° |
| 2026-04-22 20:48 | 55.62277 | 12.65075 | 19 ft | 11 kts | 116° |
| 2026-04-22 20:49 | 55.62301 | 12.65191 | 21 ft | 12 kts | 28° |
| 2026-04-22 20:49 | 55.62386 | 12.65204 | 19 ft | 13 kts | 358° |
| 2026-04-22 20:49 | 55.62479 | 12.65199 | 19 ft | 14 kts | 358° |
| 2026-04-22 20:49 | 55.62548 | 12.65195 | 19 ft | 15 kts | 358° |
| 2026-04-22 20:50 | 55.62647 | 12.65240 | 19 ft | 9 kts | 64° |
| 2026-04-22 20:50 | 55.62650 | 12.65296 | 19 ft | 7 kts | 90° |
| 2026-04-22 20:50 | 55.62656 | 12.65350 | 20 ft | 4 kts | 54° |
| 2026-04-22 20:50 | 55.62682 | 12.65379 | 21 ft | 2 kts | 26° |
| 2026-04-22 20:51 | 55.62697 | 12.65392 | 19 ft | 2 kts | 27° |
| 2026-04-22 20:51 | 55.62701 | 12.65396 | 19 ft | 0 kts | 27° |